sensor_id;sensor_type;location;lat;lon;timestamp;pressure;altitude;pressure_sealevel;temperature;humidity
72585;BME280;60618;40.084;32.908;2023-02-11T00:01:06;90540.88;;;-2.31;67.25
72585;BME280;60618;40.084;32.908;2023-02-11T00:03:34;90540.88;;;-2.27;67.20
72585;BME280;60618;40.084;32.908;2023-02-11T00:06:04;90538.78;;;-2.73;67.42
72585;BME280;60618;40.084;32.908;2023-02-11T00:08:31;90538.78;;;-2.73;67.24
72585;BME280;60618;40.084;32.908;2023-02-11T00:10:58;90539.31;;;-2.49;67.24
72585;BME280;60618;40.084;32.908;2023-02-11T00:13:25;90538.19;;;-2.45;67.30
72585;BME280;60618;40.084;32.908;2023-02-11T00:15:55;90540.91;;;-2.16;66.99
72585;BME280;60618;40.084;32.908;2023-02-11T00:18:22;90537.69;;;-3.27;71.14
72585;BME280;60618;40.084;32.908;2023-02-11T00:20:49;90559.59;;;-3.76;72.65
72585;BME280;60618;40.084;32.908;2023-02-11T00:23:16;90542.13;;;-3.31;71.31
72585;BME280;60618;40.084;32.908;2023-02-11T00:25:44;90541.91;;;-3.11;71.29
72585;BME280;60618;40.084;32.908;2023-02-11T00:28:11;90530.78;;;-3.05;70.89
72585;BME280;60618;40.084;32.908;2023-02-11T00:30:38;90526.34;;;-3.01;70.61
72585;BME280;60618;40.084;32.908;2023-02-11T00:33:06;90523.47;;;-2.85;70.55
72585;BME280;60618;40.084;32.908;2023-02-11T00:35:36;90536.19;;;-2.73;70.24
72585;BME280;60618;40.084;32.908;2023-02-11T00:38:03;90528.50;;;-2.51;69.60
72585;BME280;60618;40.084;32.908;2023-02-11T00:40:30;90523.66;;;-2.46;68.82
72585;BME280;60618;40.084;32.908;2023-02-11T00:42:57;90532.97;;;-2.48;67.76
72585;BME280;60618;40.084;32.908;2023-02-11T00:45:24;90525.88;;;-2.51;67.72
72585;BME280;60618;40.084;32.908;2023-02-11T00:47:51;90531.94;;;-2.33;67.09
72585;BME280;60618;40.084;32.908;2023-02-11T00:50:18;90521.19;;;-2.10;67.29
72585;BME280;60618;40.084;32.908;2023-02-11T00:52:45;90522.75;;;-1.91;66.72
72585;BME280;60618;40.084;32.908;2023-02-11T00:55:12;90522.38;;;-1.93;66.85
72585;BME280;60618;40.084;32.908;2023-02-11T00:57:39;90519.38;;;-2.03;66.21
72585;BME280;60618;40.084;32.908;2023-02-11T01:00:13;90517.59;;;-2.68;68.15
72585;BME280;60618;40.084;32.908;2023-02-11T01:02:40;90509.75;;;-2.75;70.58
72585;BME280;60618;40.084;32.908;2023-02-11T01:05:07;90518.41;;;-2.53;69.41
72585;BME280;60618;40.084;32.908;2023-02-11T01:07:34;90518.50;;;-2.35;68.79
72585;BME280;60618;40.084;32.908;2023-02-11T01:10:01;90519.22;;;-2.38;68.50
72585;BME280;60618;40.084;32.908;2023-02-11T01:12:28;90515.47;;;-2.44;68.94
72585;BME280;60618;40.084;32.908;2023-02-11T01:14:55;90520.31;;;-2.43;68.36
72585;BME280;60618;40.084;32.908;2023-02-11T01:17:22;90513.59;;;-2.47;69.50
72585;BME280;60618;40.084;32.908;2023-02-11T01:19:49;90518.41;;;-2.53;70.30
72585;BME280;60618;40.084;32.908;2023-02-11T01:22:15;90525.72;;;-2.80;67.49
72585;BME280;60618;40.084;32.908;2023-02-11T01:24:43;90520.00;;;-3.51;72.69
72585;BME280;60618;40.084;32.908;2023-02-11T01:27:10;90522.00;;;-3.34;71.99
72585;BME280;60618;40.084;32.908;2023-02-11T01:29:37;90526.72;;;-2.99;70.51
72585;BME280;60618;40.084;32.908;2023-02-11T01:32:04;90518.44;;;-3.11;72.69
72585;BME280;60618;40.084;32.908;2023-02-11T01:34:31;90522.34;;;-2.84;71.24
72585;BME280;60618;40.084;32.908;2023-02-11T01:36:58;90512.47;;;-2.50;69.89
72585;BME280;60618;40.084;32.908;2023-02-11T01:39:26;90518.47;;;-2.39;69.84
72585;BME280;60618;40.084;32.908;2023-02-11T01:41:53;90524.97;;;-2.84;69.33
72585;BME280;60618;40.084;32.908;2023-02-11T01:44:27;90521.38;;;-3.17;71.49
72585;BME280;60618;40.084;32.908;2023-02-11T01:46:54;90516.59;;;-3.07;71.73
72585;BME280;60618;40.084;32.908;2023-02-11T01:49:27;90515.53;;;-3.03;71.71
72585;BME280;60618;40.084;32.908;2023-02-11T01:52:25;90509.31;;;-2.84;70.60
72585;BME280;60618;40.084;32.908;2023-02-11T01:55:03;90513.47;;;-2.72;70.12
72585;BME280;60618;40.084;32.908;2023-02-11T01:57:33;90511.69;;;-2.54;70.33
72585;BME280;60618;40.084;32.908;2023-02-11T02:00:12;90506.16;;;-2.45;69.13
72585;BME280;60618;40.084;32.908;2023-02-11T02:03:05;90513.53;;;-2.62;66.41
72585;BME280;60618;40.084;32.908;2023-02-11T02:05:39;90510.28;;;-3.06;67.03
72585;BME280;60618;40.084;32.908;2023-02-11T02:10:50;90516.09;;;-3.31;73.62
72585;BME280;60618;40.084;32.908;2023-02-11T02:13:18;90518.06;;;-3.13;73.77
72585;BME280;60618;40.084;32.908;2023-02-11T02:15:52;90515.09;;;-3.12;74.70
72585;BME280;60618;40.084;32.908;2023-02-11T02:24:30;90515.88;;;-2.42;71.43
72585;BME280;60618;40.084;32.908;2023-02-11T02:27:45;90516.59;;;-2.45;69.94
72585;BME280;60618;40.084;32.908;2023-02-11T02:30:29;90509.56;;;-2.31;69.18
72585;BME280;60618;40.084;32.908;2023-02-11T02:36:08;90513.34;;;-2.21;68.63
72585;BME280;60618;40.084;32.908;2023-02-11T02:38:46;90511.53;;;-2.03;68.17
72585;BME280;60618;40.084;32.908;2023-02-11T02:41:18;90512.66;;;-2.00;67.72
72585;BME280;60618;40.084;32.908;2023-02-11T02:43:47;90507.81;;;-1.98;67.44
72585;BME280;60618;40.084;32.908;2023-02-11T02:46:20;90510.75;;;-2.14;67.55
72585;BME280;60618;40.084;32.908;2023-02-11T02:48:49;90505.13;;;-2.19;67.05
72585;BME280;60618;40.084;32.908;2023-02-11T02:51:39;90514.13;;;-2.13;67.05
72585;BME280;60618;40.084;32.908;2023-02-11T03:08:07;90510.34;;;-2.23;66.28
72585;BME280;60618;40.084;32.908;2023-02-11T03:10:39;90509.22;;;-2.29;65.37
72585;BME280;60618;40.084;32.908;2023-02-11T03:13:08;90507.66;;;-2.44;65.49
72585;BME280;60618;40.084;32.908;2023-02-11T03:15:42;90506.53;;;-2.47;66.98
72585;BME280;60618;40.084;32.908;2023-02-11T03:18:13;90508.00;;;-2.49;65.12
72585;BME280;60618;40.084;32.908;2023-02-11T03:20:47;90505.59;;;-2.83;62.87
72585;BME280;60618;40.084;32.908;2023-02-11T03:23:22;90502.75;;;-2.57;63.39
72585;BME280;60618;40.084;32.908;2023-02-11T03:26:01;90499.81;;;-2.51;64.64
72585;BME280;60618;40.084;32.908;2023-02-11T03:28:36;90501.25;;;-2.58;63.59
72585;BME280;60618;40.084;32.908;2023-02-11T03:34:32;90508.59;;;-2.81;65.36
72585;BME280;60618;40.084;32.908;2023-02-11T03:37:06;90505.53;;;-2.94;66.79
72585;BME280;60618;40.084;32.908;2023-02-11T03:39:39;90517.47;;;-2.93;66.08
72585;BME280;60618;40.084;32.908;2023-02-11T03:42:10;90512.28;;;-2.86;65.94
72585;BME280;60618;40.084;32.908;2023-02-11T03:44:43;90508.63;;;-2.70;66.13
72585;BME280;60618;40.084;32.908;2023-02-11T03:47:14;90501.91;;;-2.78;65.61
72585;BME280;60618;40.084;32.908;2023-02-11T03:49:46;90513.16;;;-2.64;67.06
72585;BME280;60618;40.084;32.908;2023-02-11T03:52:17;90512.47;;;-2.46;66.50
72585;BME280;60618;40.084;32.908;2023-02-11T03:54:47;90502.84;;;-2.42;66.63
72585;BME280;60618;40.084;32.908;2023-02-11T03:57:15;90510.69;;;-2.28;66.55
72585;BME280;60618;40.084;32.908;2023-02-11T03:59:58;90512.97;;;-2.23;66.52
72585;BME280;60618;40.084;32.908;2023-02-11T04:02:31;90514.41;;;-2.29;66.01
72585;BME280;60618;40.084;32.908;2023-02-11T04:04:59;90512.53;;;-2.39;64.18
72585;BME280;60618;40.084;32.908;2023-02-11T04:07:27;90508.78;;;-2.38;64.28
72585;BME280;60618;40.084;32.908;2023-02-11T04:09:54;90510.28;;;-2.41;63.07
72585;BME280;60618;40.084;32.908;2023-02-11T04:12:21;90513.47;;;-2.72;66.17
72585;BME280;60618;40.084;32.908;2023-02-11T04:14:47;90505.69;;;-2.69;64.96
72585;BME280;60618;40.084;32.908;2023-02-11T04:17:15;90502.00;;;-2.57;64.06
72585;BME280;60618;40.084;32.908;2023-02-11T04:19:41;90506.53;;;-2.43;62.88
72585;BME280;60618;40.084;32.908;2023-02-11T04:22:09;90510.31;;;-2.30;61.95
72585;BME280;60618;40.084;32.908;2023-02-11T04:24:36;90508.50;;;-2.19;62.64
72585;BME280;60618;40.084;32.908;2023-02-11T04:27:03;90502.91;;;-2.17;61.25
72585;BME280;60618;40.084;32.908;2023-02-11T04:29:30;90509.59;;;-2.20;60.11
72585;BME280;60618;40.084;32.908;2023-02-11T04:31:57;90510.31;;;-2.34;60.83
72585;BME280;60618;40.084;32.908;2023-02-11T04:34:24;90511.75;;;-2.43;62.59
72585;BME280;60618;40.084;32.908;2023-02-11T04:36:51;90509.69;;;-2.82;67.56
72585;BME280;60618;40.084;32.908;2023-02-11T04:39:18;90513.25;;;-3.11;69.87
72585;BME280;60618;40.084;32.908;2023-02-11T04:41:45;90513.09;;;-2.71;67.44
72585;BME280;60618;40.084;32.908;2023-02-11T04:44:11;90506.91;;;-2.48;66.50
72585;BME280;60618;40.084;32.908;2023-02-11T04:46:39;90513.56;;;-3.17;69.57
72585;BME280;60618;40.084;32.908;2023-02-11T04:49:05;90508.97;;;-3.34;71.50
72585;BME280;60618;40.084;32.908;2023-02-11T04:51:33;90511.50;;;-2.93;68.78
72585;BME280;60618;40.084;32.908;2023-02-11T04:54:00;90517.56;;;-2.78;68.26
72585;BME280;60618;40.084;32.908;2023-02-11T04:56:26;90506.75;;;-2.77;66.31
72585;BME280;60618;40.084;32.908;2023-02-11T04:58:53;90510.63;;;-3.11;66.79
72585;BME280;60618;40.084;32.908;2023-02-11T05:01:20;90516.66;;;-3.00;66.92
72585;BME280;60618;40.084;32.908;2023-02-11T05:03:47;90511.06;;;-3.02;66.54
72585;BME280;60618;40.084;32.908;2023-02-11T05:06:15;90515.22;;;-2.94;67.47
72585;BME280;60618;40.084;32.908;2023-02-11T05:08:42;90519.66;;;-2.98;69.46
72585;BME280;60618;40.084;32.908;2023-02-11T05:11:20;90509.91;;;-3.08;68.81
72585;BME280;60618;40.084;32.908;2023-02-11T05:13:47;90512.56;;;-2.98;64.28
72585;BME280;60618;40.084;32.908;2023-02-11T05:16:15;90514.59;;;-2.73;65.08
72585;BME280;60618;40.084;32.908;2023-02-11T05:18:44;90511.44;;;-3.00;62.40
72585;BME280;60618;40.084;32.908;2023-02-11T05:21:14;90519.69;;;-2.95;64.70
72585;BME280;60618;40.084;32.908;2023-02-11T05:23:41;90504.91;;;-2.73;62.77
72585;BME280;60618;40.084;32.908;2023-02-11T05:26:09;90511.78;;;-2.36;61.76
72585;BME280;60618;40.084;32.908;2023-02-11T05:28:37;90503.59;;;-2.38;61.99
72585;BME280;60618;40.084;32.908;2023-02-11T05:31:05;90511.81;;;-2.29;61.42
72585;BME280;60618;40.084;32.908;2023-02-11T05:33:32;90512.44;;;-2.53;61.09
72585;BME280;60618;40.084;32.908;2023-02-11T05:36:07;90506.06;;;-3.25;67.30
72585;BME280;60618;40.084;32.908;2023-02-11T05:38:35;90508.75;;;-3.62;70.53
72585;BME280;60618;40.084;32.908;2023-02-11T05:41:03;90506.91;;;-3.62;71.53
72585;BME280;60618;40.084;32.908;2023-02-11T05:43:31;90503.00;;;-3.38;70.63
72585;BME280;60618;40.084;32.908;2023-02-11T05:45:58;90506.09;;;-3.22;69.36
72585;BME280;60618;40.084;32.908;2023-02-11T05:48:25;90506.53;;;-3.12;68.36
72585;BME280;60618;40.084;32.908;2023-02-11T05:50:52;90496.97;;;-2.94;67.58
72585;BME280;60618;40.084;32.908;2023-02-11T05:53:20;90500.75;;;-2.81;66.17
72585;BME280;60618;40.084;32.908;2023-02-11T05:55:47;90507.50;;;-2.73;65.26
72585;BME280;60618;40.084;32.908;2023-02-11T05:58:15;90515.38;;;-2.66;64.95
72585;BME280;60618;40.084;32.908;2023-02-11T06:00:42;90510.13;;;-2.73;64.41
72585;BME280;60618;40.084;32.908;2023-02-11T06:03:09;90508.94;;;-2.82;65.19
72585;BME280;60618;40.084;32.908;2023-02-11T06:05:36;90513.00;;;-2.89;64.87
72585;BME280;60618;40.084;32.908;2023-02-11T06:08:03;90510.81;;;-2.79;64.62
72585;BME280;60618;40.084;32.908;2023-02-11T06:10:30;90506.28;;;-2.90;65.20
72585;BME280;60618;40.084;32.908;2023-02-11T06:12:56;90507.66;;;-3.10;65.72
72585;BME280;60618;40.084;32.908;2023-02-11T06:15:23;90505.03;;;-3.13;66.59
72585;BME280;60618;40.084;32.908;2023-02-11T06:17:50;90504.63;;;-3.16;65.41
72585;BME280;60618;40.084;32.908;2023-02-11T06:20:18;90501.72;;;-3.10;65.94
72585;BME280;60618;40.084;32.908;2023-02-11T06:22:45;90495.81;;;-3.00;66.18
72585;BME280;60618;40.084;32.908;2023-02-11T06:25:12;90506.22;;;-3.04;64.24
72585;BME280;60618;40.084;32.908;2023-02-11T06:27:39;90497.31;;;-2.99;64.70
72585;BME280;60618;40.084;32.908;2023-02-11T06:30:07;90497.31;;;-2.99;65.14
72585;BME280;60618;40.084;32.908;2023-02-11T06:32:37;90497.28;;;-3.03;64.61
72585;BME280;60618;40.084;32.908;2023-02-11T06:35:14;90495.81;;;-3.00;64.12
72585;BME280;60618;40.084;32.908;2023-02-11T06:37:41;90501.03;;;-3.00;64.57
72585;BME280;60618;40.084;32.908;2023-02-11T06:40:10;90506.25;;;-3.00;63.84
72585;BME280;60618;40.084;32.908;2023-02-11T06:42:37;90495.88;;;-2.93;63.89
72585;BME280;60618;40.084;32.908;2023-02-11T06:45:04;90497.69;;;-2.97;64.39
72585;BME280;60618;40.084;32.908;2023-02-11T06:47:31;90498.41;;;-3.04;64.04
72585;BME280;60618;40.084;32.908;2023-02-11T06:49:59;90501.41;;;-2.98;64.54
72585;BME280;60618;40.084;32.908;2023-02-11T06:52:26;90500.31;;;-2.94;64.30
72585;BME280;60618;40.084;32.908;2023-02-11T06:54:53;90507.78;;;-2.89;64.91
72585;BME280;60618;40.084;32.908;2023-02-11T06:57:20;90501.50;;;-2.80;64.25
72585;BME280;60618;40.084;32.908;2023-02-11T06:59:47;90497.06;;;-2.76;64.70
72585;BME280;60618;40.084;32.908;2023-02-11T07:02:14;90497.84;;;-2.72;64.02
72585;BME280;60618;40.084;32.908;2023-02-11T07:04:41;90493.72;;;-2.77;63.75
72585;BME280;60618;40.084;32.908;2023-02-11T07:07:08;90500.44;;;-2.72;63.38
72585;BME280;60618;40.084;32.908;2023-02-11T07:09:34;90492.31;;;-2.60;62.75
72585;BME280;60618;40.084;32.908;2023-02-11T07:12:02;90494.53;;;-2.62;61.26
72585;BME280;60618;40.084;32.908;2023-02-11T07:14:29;90496.34;;;-2.70;61.85
72585;BME280;60618;40.084;32.908;2023-02-11T07:16:55;90491.50;;;-2.71;62.27
72585;BME280;60618;40.084;32.908;2023-02-11T07:19:22;90481.09;;;-2.68;62.33
72585;BME280;60618;40.084;32.908;2023-02-11T07:21:49;90485.63;;;-2.58;63.26
72585;BME280;60618;40.084;32.908;2023-02-11T07:24:16;90487.84;;;-2.52;61.75
72585;BME280;60618;40.084;32.908;2023-02-11T07:26:43;90488.59;;;-2.52;62.75
72585;BME280;60618;40.084;32.908;2023-02-11T07:29:10;90483.06;;;-2.50;62.53
72585;BME280;60618;40.084;32.908;2023-02-11T07:31:37;90483.38;;;-2.55;61.90
72585;BME280;60618;40.084;32.908;2023-02-11T07:34:04;90483.81;;;-2.43;64.80
72585;BME280;60618;40.084;32.908;2023-02-11T07:36:31;90493.16;;;-2.35;63.53
72585;BME280;60618;40.084;32.908;2023-02-11T07:38:58;90481.59;;;-2.41;62.04
72585;BME280;60618;40.084;32.908;2023-02-11T07:41:26;90486.44;;;-2.39;63.15
72585;BME280;60618;40.084;32.908;2023-02-11T07:43:54;90486.47;;;-2.32;62.64
72585;BME280;60618;40.084;32.908;2023-02-11T07:46:26;90482.78;;;-2.20;63.66
72585;BME280;60618;40.084;32.908;2023-02-11T07:48:53;90485.81;;;-2.04;62.57
72585;BME280;60618;40.084;32.908;2023-02-11T07:51:25;90492.88;;;-2.05;61.60
72585;BME280;60618;40.084;32.908;2023-02-11T07:53:53;90489.09;;;-2.25;60.35
72585;BME280;60618;40.084;32.908;2023-02-11T07:56:21;90494.66;;;-2.30;59.71
72585;BME280;60618;40.084;32.908;2023-02-11T07:58:49;90487.19;;;-2.39;60.08
72585;BME280;60618;40.084;32.908;2023-02-11T08:01:22;90492.41;;;-2.35;60.53
72585;BME280;60618;40.084;32.908;2023-02-11T08:03:50;90498.41;;;-2.31;61.20
72585;BME280;60618;40.084;32.908;2023-02-11T08:06:18;90499.06;;;-2.48;60.97
72585;BME280;60618;40.084;32.908;2023-02-11T08:08:46;90491.63;;;-2.50;61.31
72585;BME280;60618;40.084;32.908;2023-02-11T08:11:17;90491.63;;;-2.46;60.09
72585;BME280;60618;40.084;32.908;2023-02-11T08:13:44;90489.38;;;-2.44;60.93
72585;BME280;60618;40.084;32.908;2023-02-11T08:16:24;90494.31;;;-2.25;60.84
72585;BME280;60618;40.084;32.908;2023-02-11T08:18:52;90498.78;;;-2.25;60.41
72585;BME280;60618;40.084;32.908;2023-02-11T08:21:21;90495.03;;;-2.32;60.07
72585;BME280;60618;40.084;32.908;2023-02-11T08:23:48;90490.63;;;-2.10;59.79
72585;BME280;60618;40.084;32.908;2023-02-11T08:26:23;90484.63;;;-2.24;59.79
72585;BME280;60618;40.084;32.908;2023-02-11T08:28:52;90498.41;;;-2.31;58.67
72585;BME280;60618;40.084;32.908;2023-02-11T08:31:28;90499.91;;;-2.16;58.95
72585;BME280;60618;40.084;32.908;2023-02-11T08:33:55;90491.75;;;-2.11;60.18
72585;BME280;60618;40.084;32.908;2023-02-11T08:36:27;90490.59;;;-2.24;59.96
72585;BME280;60618;40.084;32.908;2023-02-11T08:38:55;90495.41;;;-2.26;59.19
72585;BME280;60618;40.084;32.908;2023-02-11T08:41:43;90491.00;;;-2.08;58.70
72585;BME280;60618;40.084;32.908;2023-02-11T08:44:10;90490.66;;;-2.03;59.24
72585;BME280;60618;40.084;32.908;2023-02-11T08:46:37;90479.88;;;-1.97;58.76
72585;BME280;60618;40.084;32.908;2023-02-11T08:49:06;90487.69;;;-1.90;58.57
72585;BME280;60618;40.084;32.908;2023-02-11T08:51:34;90491.81;;;-1.75;58.37
72585;BME280;60618;40.084;32.908;2023-02-11T08:54:02;90497.06;;;-1.68;58.50
72585;BME280;60618;40.084;32.908;2023-02-11T08:56:29;90484.38;;;-1.73;57.61
72585;BME280;60618;40.084;32.908;2023-02-11T08:58:56;90481.78;;;-1.66;58.63
72585;BME280;60618;40.084;32.908;2023-02-11T09:01:27;90487.72;;;-1.65;57.90
72585;BME280;60618;40.084;32.908;2023-02-11T09:03:55;90486.28;;;-1.34;56.74
72585;BME280;60618;40.084;32.908;2023-02-11T09:06:23;90475.44;;;-1.04;57.51
72585;BME280;60618;40.084;32.908;2023-02-11T09:08:53;90466.03;;;-0.73;55.66
72585;BME280;60618;40.084;32.908;2023-02-11T09:11:24;90474.56;;;-0.55;55.66
72585;BME280;60618;40.084;32.908;2023-02-11T09:13:52;90477.28;;;-1.05;56.35
72585;BME280;60618;40.084;32.908;2023-02-11T09:16:22;90483.28;;;-1.33;56.70
72585;BME280;60618;40.084;32.908;2023-02-11T09:18:49;90485.50;;;-1.60;56.85
72585;BME280;60618;40.084;32.908;2023-02-11T09:21:17;90470.22;;;-1.68;57.93
72585;BME280;60618;40.084;32.908;2023-02-11T09:23:45;90472.06;;;-1.62;60.13
72585;BME280;60618;40.084;32.908;2023-02-11T09:28:41;90473.94;;;-1.52;58.13
72585;BME280;60618;40.084;32.908;2023-02-11T09:31:11;90476.56;;;-1.30;59.05
72585;BME280;60618;40.084;32.908;2023-02-11T09:33:40;90466.84;;;-1.26;55.76
72585;BME280;60618;40.084;32.908;2023-02-11T09:36:07;90470.22;;;-1.15;56.43
72585;BME280;60618;40.084;32.908;2023-02-11T09:38:34;90450.41;;;-1.09;56.58
72585;BME280;60618;40.084;32.908;2023-02-11T09:41:01;90453.00;;;-0.88;55.46
72585;BME280;60618;40.084;32.908;2023-02-11T09:43:35;90457.50;;;-1.06;55.50
72585;BME280;60618;40.084;32.908;2023-02-11T09:46:03;90458.28;;;-1.59;56.50
72585;BME280;60618;40.084;32.908;2023-02-11T09:48:37;90453.78;;;-1.55;57.16
72585;BME280;60618;40.084;32.908;2023-02-11T09:51:15;90455.66;;;-1.55;58.98
72585;BME280;60618;40.084;32.908;2023-02-11T09:53:44;90456.03;;;-1.39;58.89
72585;BME280;60618;40.084;32.908;2023-02-11T09:56:14;90449.31;;;-1.36;57.48
72585;BME280;60618;40.084;32.908;2023-02-11T09:58:42;90440.72;;;-1.37;57.33
72585;BME280;60618;40.084;32.908;2023-02-11T10:01:37;90432.88;;;-1.23;57.03
72585;BME280;60618;40.084;32.908;2023-02-11T10:06:44;90431.41;;;-1.24;56.65
72585;BME280;60618;40.084;32.908;2023-02-11T10:15:17;90419.00;;;-0.95;57.41
72585;BME280;60618;40.084;32.908;2023-02-11T10:18:14;90417.50;;;-0.85;55.76
72585;BME280;60618;40.084;32.908;2023-02-11T10:21:18;90422.03;;;-1.03;54.93
72585;BME280;60618;40.084;32.908;2023-02-11T10:23:53;90420.06;;;-0.67;55.88
72585;BME280;60618;40.084;32.908;2023-02-11T10:26:22;90408.25;;;-0.20;54.93
72585;BME280;60618;40.084;32.908;2023-02-11T10:28:51;90409.34;;;-0.14;53.53
72585;BME280;60618;40.084;32.908;2023-02-11T10:31:23;90402.84;;;0.09;53.61
72585;BME280;60618;40.084;32.908;2023-02-11T10:34:12;90409.44;;;-0.32;52.69
72585;BME280;60618;40.084;32.908;2023-02-11T10:36:41;90419.16;;;-0.32;53.54
72585;BME280;60618;40.084;32.908;2023-02-11T10:41:46;90409.19;;;0.15;53.03
72585;BME280;60618;40.084;32.908;2023-02-11T10:44:35;90407.88;;;0.41;52.59
72585;BME280;60618;40.084;32.908;2023-02-11T10:47:19;90400.56;;;0.66;53.33
72585;BME280;60618;40.084;32.908;2023-02-11T10:49:48;90402.44;;;0.66;49.79
72585;BME280;60618;40.084;32.908;2023-02-11T10:52:19;90406.75;;;0.87;50.87
72585;BME280;60618;40.084;32.908;2023-02-11T10:57:26;90398.25;;;0.75;50.65
72585;BME280;60618;40.084;32.908;2023-02-11T11:00:01;90401.94;;;0.37;51.68
72585;BME280;60618;40.084;32.908;2023-02-11T11:02:33;90396.69;;;-0.22;53.26
72585;BME280;60618;40.084;32.908;2023-02-11T11:05:27;90390.84;;;-0.55;54.15
72585;BME280;60618;40.084;32.908;2023-02-11T11:08:04;90384.53;;;-0.61;55.57
72585;BME280;60618;40.084;32.908;2023-02-11T11:13:36;90375.03;;;-0.26;55.34
72585;BME280;60618;40.084;32.908;2023-02-11T11:18:50;90372.25;;;-0.71;55.10
72585;BME280;60618;40.084;32.908;2023-02-11T11:24:03;90369.69;;;-0.93;56.95
72585;BME280;60618;40.084;32.908;2023-02-11T11:26:42;90373.44;;;-0.94;56.95
72585;BME280;60618;40.084;32.908;2023-02-11T11:29:16;90364.09;;;-0.88;57.21
72585;BME280;60618;40.084;32.908;2023-02-11T11:31:54;90358.13;;;-0.88;56.33
72585;BME280;60618;40.084;32.908;2023-02-11T11:34:29;90353.94;;;-0.71;56.77
72585;BME280;60618;40.084;32.908;2023-02-11T11:36:59;90358.50;;;-0.90;56.21
72585;BME280;60618;40.084;32.908;2023-02-11T11:39:29;90357.28;;;-0.67;55.59
72585;BME280;60618;40.084;32.908;2023-02-11T11:42:00;90360.22;;;-0.58;55.12
72585;BME280;60618;40.084;32.908;2023-02-11T11:44:28;90362.97;;;-0.87;56.86
72585;BME280;60618;40.084;32.908;2023-02-11T11:52:43;90352.28;;;-1.31;57.85
72585;BME280;60618;40.084;32.908;2023-02-11T11:55:59;90342.56;;;-1.24;58.47
72585;BME280;60618;40.084;32.908;2023-02-11T11:58:27;90358.63;;;-1.39;57.82
72585;BME280;60618;40.084;32.908;2023-02-11T12:04:12;90348.50;;;-1.16;56.58
72585;BME280;60618;40.084;32.908;2023-02-11T12:10:09;90346.59;;;-1.08;56.61
72585;BME280;60618;40.084;32.908;2023-02-11T12:12:54;90346.63;;;-1.12;58.09
72585;BME280;60618;40.084;32.908;2023-02-11T12:16:43;90338.84;;;-1.33;58.12
72585;BME280;60618;40.084;32.908;2023-02-11T12:21:50;90339.56;;;-1.29;58.10
72585;BME280;60618;40.084;32.908;2023-02-11T12:24:25;90341.06;;;-1.25;56.88
72585;BME280;60618;40.084;32.908;2023-02-11T12:27:25;90330.56;;;-1.14;57.21
72585;BME280;60618;40.084;32.908;2023-02-11T12:30:58;90332.06;;;-1.13;56.97
72585;BME280;60618;40.084;32.908;2023-02-11T12:35:58;90320.81;;;-1.03;55.77
72585;BME280;60618;40.084;32.908;2023-02-11T12:43:57;90312.22;;;-0.30;55.57
72585;BME280;60618;40.084;32.908;2023-02-11T12:46:41;90307.19;;;-0.03;54.69
72585;BME280;60618;40.084;32.908;2023-02-11T12:55:27;90294.78;;;0.05;52.07
72585;BME280;60618;40.084;32.908;2023-02-11T12:57:58;90302.50;;;-0.26;52.90
72585;BME280;60618;40.084;32.908;2023-02-11T13:00:37;90297.88;;;-0.11;52.92
72585;BME280;60618;40.084;32.908;2023-02-11T13:05:39;90308.41;;;-0.18;52.43
72585;BME280;60618;40.084;32.908;2023-02-11T13:10:40;90297.09;;;-0.05;51.77
72585;BME280;60618;40.084;32.908;2023-02-11T13:13:21;90296.44;;;-0.19;51.87
72585;BME280;60618;40.084;32.908;2023-02-11T13:16:40;90291.00;;;0.09;53.29
72585;BME280;60618;40.084;32.908;2023-02-11T13:19:37;90293.22;;;0.55;50.37
72585;BME280;60618;40.084;32.908;2023-02-11T13:33:15;90286.00;;;0.25;52.23
72585;BME280;60618;40.084;32.908;2023-02-11T13:38:31;90295.84;;;0.52;50.45
72585;BME280;60618;40.084;32.908;2023-02-11T13:41:05;90292.31;;;0.32;50.80
72585;BME280;60618;40.084;32.908;2023-02-11T13:43:35;90286.84;;;0.53;50.63
72585;BME280;60618;40.084;32.908;2023-02-11T13:46:03;90284.22;;;0.15;50.51
72585;BME280;60618;40.084;32.908;2023-02-11T13:48:58;90279.91;;;0.36;51.01
72585;BME280;60618;40.084;32.908;2023-02-11T13:51:38;90285.56;;;-0.14;51.68
72585;BME280;60618;40.084;32.908;2023-02-11T13:54:06;90279.28;;;-0.24;51.93
72585;BME280;60618;40.084;32.908;2023-02-11T13:56:37;90280.59;;;-0.50;53.38
72585;BME280;60618;40.084;32.908;2023-02-11T14:04:24;90272.06;;;-0.09;52.73
72585;BME280;60618;40.084;32.908;2023-02-11T14:07:28;90272.38;;;-0.55;52.38
72585;BME280;60618;40.084;32.908;2023-02-11T14:09:56;90277.69;;;-0.66;53.23
72585;BME280;60618;40.084;32.908;2023-02-11T14:12:33;90274.06;;;-0.24;53.30
72585;BME280;60618;40.084;32.908;2023-02-11T14:15:19;90269.22;;;-0.25;52.04
72585;BME280;60618;40.084;32.908;2023-02-11T14:17:46;90271.59;;;-0.49;52.96
72585;BME280;60618;40.084;32.908;2023-02-11T14:20:35;90271.50;;;-0.97;53.91
72585;BME280;60618;40.084;32.908;2023-02-11T14:23:03;90272.88;;;-0.75;53.69
72585;BME280;60618;40.084;32.908;2023-02-11T14:25:30;90266.63;;;-0.92;53.73
72585;BME280;60618;40.084;32.908;2023-02-11T14:28:23;90269.72;;;-1.18;55.23
72585;BME280;60618;40.084;32.908;2023-02-11T14:31:13;90270.16;;;-1.37;55.50
72585;BME280;60618;40.084;32.908;2023-02-11T14:42:25;90269.31;;;-1.06;55.05
72585;BME280;60618;40.084;32.908;2023-02-11T14:45:02;90267.75;;;-0.93;54.10
72585;BME280;60618;40.084;32.908;2023-02-11T14:47:52;90269.53;;;-0.75;54.54
72585;BME280;60618;40.084;32.908;2023-02-11T14:50:31;90263.16;;;-0.74;54.13
72585;BME280;60618;40.084;32.908;2023-02-11T14:53:00;90277.66;;;-0.59;52.83
72585;BME280;60618;40.084;32.908;2023-02-11T14:55:33;90276.34;;;-0.89;53.64
72585;BME280;60618;40.084;32.908;2023-02-11T14:58:31;90278.28;;;-1.07;54.04
72585;BME280;60618;40.084;32.908;2023-02-11T15:01:05;90284.31;;;-1.24;54.84
72585;BME280;60618;40.084;32.908;2023-02-11T15:03:48;90283.88;;;-1.05;54.71
72585;BME280;60618;40.084;32.908;2023-02-11T15:06:29;90280.47;;;-1.02;56.04
72585;BME280;60618;40.084;32.908;2023-02-11T15:09:00;90286.47;;;-1.01;55.48
72585;BME280;60618;40.084;32.908;2023-02-11T15:11:32;90282.69;;;-0.93;55.93